createdAt,value
2022-10-11T00:02:26.573Z,7.00
2022-10-11T00:04:53.073Z,7.50
2022-10-11T00:07:20.276Z,7.73
2022-10-11T00:09:46.901Z,7.73
2022-10-11T00:12:13.324Z,7.73
2022-10-11T00:14:39.707Z,6.44
2022-10-11T00:17:07.856Z,7.43
2022-10-11T00:19:34.355Z,7.59
2022-10-11T00:22:00.716Z,7.71
2022-10-11T00:24:29.464Z,7.43
2022-10-11T00:26:55.774Z,7.52
2022-10-11T00:29:24.889Z,7.68
2022-10-11T00:31:51.272Z,6.73
2022-10-11T00:34:18.028Z,6.64
2022-10-11T00:36:45.623Z,7.59
2022-10-11T00:39:14.420Z,6.92
2022-10-11T00:41:41.824Z,6.46
2022-10-11T00:44:23.162Z,7.43
2022-10-11T00:46:55.721Z,7.37
2022-10-11T00:49:44.080Z,7.26
2022-10-11T00:52:28.966Z,7.13
2022-10-11T00:54:56.365Z,7.07
2022-10-11T00:57:26.772Z,7.18
2022-10-11T00:59:55.921Z,6.53
2022-10-11T01:02:26.167Z,6.80
2022-10-11T01:05:11.355Z,6.30
2022-10-11T01:07:39.545Z,6.51
2022-10-11T01:10:06.142Z,7.06
2022-10-11T01:12:32.634Z,6.85
2022-10-11T01:15:19.618Z,6.69
2022-10-11T01:18:17.337Z,6.76
2022-10-11T01:20:58.682Z,5.43
2022-10-11T01:23:44.507Z,6.42
2022-10-11T01:26:34.445Z,6.51
2022-10-11T01:29:22.715Z,6.45
2022-10-11T01:32:03.798Z,5.89
2022-10-11T01:34:41.649Z,6.38
2022-10-11T01:37:34.838Z,5.98
2022-10-11T01:40:04.372Z,6.42
2022-10-11T01:42:31.997Z,5.80
2022-10-11T01:44:59.348Z,5.90
2022-10-11T01:47:28.466Z,6.37
2022-10-11T01:50:00.845Z,6.36
2022-10-11T01:52:30.446Z,6.38
2022-10-11T01:55:16.994Z,6.41
2022-10-11T01:58:14.157Z,6.41
2022-10-11T02:01:03.114Z,5.95
2022-10-11T02:03:50.835Z,6.00
2022-10-11T02:06:34.885Z,6.16
2022-10-11T02:09:37.536Z,6.25
2022-10-11T02:12:10.214Z,6.08
2022-10-11T02:14:42.578Z,5.33
2022-10-11T02:17:16.713Z,5.63
2022-10-11T02:19:47.593Z,6.08
2022-10-11T02:22:20.437Z,5.93
2022-10-11T02:24:51.686Z,5.48
2022-10-11T02:27:23.033Z,5.46
2022-10-11T02:29:53.373Z,5.49
2022-10-11T02:32:21.845Z,5.93
2022-10-11T02:34:53.758Z,5.02
2022-10-11T02:37:32.143Z,5.72
2022-10-11T02:40:09.288Z,5.84
2022-10-11T02:42:40.354Z,5.79
2022-10-11T02:45:16.345Z,4.85
2022-10-11T02:47:43.582Z,4.95
2022-10-11T02:50:13.703Z,5.70
2022-10-11T02:52:40.431Z,5.58
2022-10-11T02:55:08.080Z,5.64
2022-10-11T02:57:34.399Z,5.26
2022-10-11T03:00:00.722Z,5.30
2022-10-11T03:02:27.041Z,5.31
2022-10-11T03:04:53.728Z,4.36
2022-10-11T03:07:20.101Z,4.83
2022-10-11T03:09:46.739Z,4.96
2022-10-11T03:12:13.088Z,5.01
2022-10-11T03:14:39.430Z,5.39
2022-10-11T03:17:24.097Z,5.30
2022-10-11T03:19:52.874Z,4.63
2022-10-11T03:22:19.373Z,5.13
2022-10-11T03:24:48.025Z,5.04
2022-10-11T03:27:14.415Z,5.06
2022-10-11T03:29:40.710Z,4.97
2022-10-11T03:32:07.033Z,4.74
2022-10-11T03:34:33.458Z,4.55
2022-10-11T03:36:59.762Z,4.58
2022-10-11T03:39:28.234Z,4.30
2022-10-11T03:41:54.571Z,4.31
2022-10-11T03:44:21.009Z,3.53
2022-10-11T03:46:47.400Z,4.38
2022-10-11T03:49:13.734Z,3.97
2022-10-11T03:51:40.064Z,4.04
2022-10-11T03:54:06.427Z,4.64
2022-10-11T03:56:32.781Z,4.24
2022-10-11T03:58:59.168Z,4.48
2022-10-11T04:01:25.600Z,4.47
2022-10-11T04:03:56.054Z,4.44
2022-10-11T04:06:22.637Z,4.69
2022-10-11T04:08:48.936Z,4.25
2022-10-11T04:11:15.850Z,3.64
2022-10-11T04:13:42.302Z,4.50
2022-10-11T04:16:08.965Z,4.18
2022-10-11T04:18:35.384Z,4.00
2022-10-11T04:21:01.852Z,4.17
2022-10-11T04:23:29.832Z,3.68
2022-10-11T04:25:56.261Z,3.75
2022-10-11T04:28:22.716Z,4.23
2022-10-11T04:30:49.188Z,3.55
2022-10-11T04:33:15.513Z,4.24
2022-10-11T04:35:41.845Z,3.84
2022-10-11T04:38:08.433Z,3.93
2022-10-11T04:40:34.754Z,3.06
2022-10-11T04:43:01.535Z,3.57
2022-10-11T04:45:27.890Z,3.99
2022-10-11T04:47:54.201Z,3.52
2022-10-11T04:50:20.517Z,3.29
2022-10-11T04:52:46.921Z,3.78
2022-10-11T04:55:14.193Z,3.35
2022-10-11T04:57:40.486Z,3.47
2022-10-11T05:00:07.484Z,3.22
2022-10-11T05:02:33.882Z,3.47
2022-10-11T05:05:00.260Z,3.90
2022-10-11T05:07:26.613Z,2.91
2022-10-11T05:09:53.005Z,3.50
2022-10-11T05:12:19.891Z,3.92
2022-10-11T05:14:46.184Z,3.96
2022-10-11T05:17:12.658Z,3.84
2022-10-11T05:19:38.961Z,4.12
2022-10-11T05:22:05.265Z,3.94
2022-10-11T05:24:31.729Z,3.80
2022-10-11T05:27:02.428Z,4.32
2022-10-11T05:29:29.798Z,4.18
2022-10-11T05:31:56.192Z,4.25
2022-10-11T05:34:22.510Z,4.52
2022-10-11T05:36:51.682Z,3.85
2022-10-11T05:39:18.008Z,4.34
2022-10-11T05:41:44.641Z,4.28
2022-10-11T05:44:11.016Z,4.00
2022-10-11T05:46:37.416Z,4.61
2022-10-11T05:49:03.734Z,4.79
2022-10-11T05:51:30.073Z,4.69
2022-10-11T05:53:56.507Z,4.48
2022-10-11T05:56:24.757Z,4.32
2022-10-11T05:58:51.973Z,4.03
2022-10-11T06:01:25.040Z,3.67
2022-10-11T06:03:52.086Z,4.92
2022-10-11T06:06:19.788Z,4.96
2022-10-11T06:08:46.956Z,4.47
2022-10-11T06:11:15.979Z,4.53
2022-10-11T06:13:43.092Z,5.07
2022-10-11T06:16:12.376Z,4.82
2022-10-11T06:18:39.042Z,4.77
2022-10-11T06:21:05.641Z,4.71
2022-10-11T06:23:31.963Z,4.23
2022-10-11T06:26:05.102Z,5.14
2022-10-11T06:28:31.987Z,5.02
2022-10-11T06:30:58.827Z,4.66
2022-10-11T06:33:25.460Z,4.82
2022-10-11T06:36:02.633Z,5.26
2022-10-11T06:38:29.175Z,5.09
2022-10-11T06:40:55.526Z,5.25
2022-10-11T06:43:22.584Z,4.18
2022-10-11T06:45:49.276Z,5.66
2022-10-11T06:48:15.625Z,5.50
2022-10-11T06:50:59.155Z,5.45
2022-10-11T06:57:10.023Z,5.63
2022-10-11T06:59:36.362Z,5.98
2022-10-11T07:02:02.726Z,5.50
2022-10-11T07:04:29.133Z,5.91
2022-10-11T07:06:55.934Z,5.95
2022-10-11T07:09:22.386Z,5.21
2022-10-11T07:11:48.933Z,5.68
2022-10-11T07:14:15.305Z,6.05
2022-10-11T07:16:41.668Z,5.63
2022-10-11T07:19:08.161Z,5.31
2022-10-11T07:21:36.021Z,6.41
2022-10-11T07:24:02.556Z,6.13
2022-10-11T07:26:33.792Z,6.77
2022-10-11T07:29:04.143Z,6.92
2022-10-11T07:31:31.003Z,6.75
2022-10-11T07:33:57.466Z,7.04
2022-10-11T07:36:26.375Z,6.76
2022-10-11T07:38:52.863Z,6.98
2022-10-11T07:41:19.996Z,7.36
2022-10-11T07:43:47.817Z,7.31
2022-10-11T07:46:14.319Z,7.26
2022-10-11T07:48:41.250Z,7.74
2022-10-11T07:51:19.538Z,7.86
2022-10-11T07:53:51.495Z,7.40
2022-10-11T07:56:20.512Z,7.37
2022-10-11T07:58:54.940Z,7.86
2022-10-11T08:01:21.929Z,8.01
2022-10-11T08:03:48.742Z,7.81
2022-10-11T08:06:18.048Z,8.19
2022-10-11T08:08:46.975Z,8.35
2022-10-11T08:11:31.521Z,8.51
2022-10-11T08:13:58.372Z,7.79
2022-10-11T08:16:25.099Z,7.45
2022-10-11T08:18:51.425Z,7.66
2022-10-11T08:21:18.967Z,8.05
2022-10-11T08:23:45.910Z,7.70
2022-10-11T08:26:13.967Z,8.32
2022-10-11T08:28:40.544Z,8.50
2022-10-11T08:31:07.188Z,8.06
2022-10-11T08:33:33.667Z,8.34
2022-10-11T08:36:05.160Z,8.30
2022-10-11T08:38:31.803Z,7.53
2022-10-11T08:41:00.548Z,8.93
2022-10-11T08:43:45.885Z,8.76
2022-10-11T08:46:14.862Z,8.79
2022-10-11T08:48:44.805Z,8.96
2022-10-11T08:51:28.570Z,9.02
2022-10-11T08:54:07.639Z,8.67
2022-10-11T08:56:37.228Z,8.82
2022-10-11T08:59:12.288Z,8.79
2022-10-11T09:01:46.143Z,8.63
2022-10-11T09:04:17.597Z,8.38
2022-10-11T09:07:04.934Z,9.24
2022-10-11T09:09:55.583Z,9.49
2022-10-11T09:12:38.378Z,9.58
2022-10-11T09:15:50.083Z,9.53
2022-10-11T09:18:27.154Z,9.51
2022-10-11T09:21:10.023Z,9.42
2022-10-11T09:23:58.844Z,9.61
2022-10-11T09:26:27.798Z,9.47
2022-10-11T09:29:28.514Z,8.69
2022-10-11T09:31:56.925Z,9.64
2022-10-11T09:34:26.872Z,8.93
2022-10-11T09:37:06.002Z,9.62
2022-10-11T09:39:38.265Z,9.38
2022-10-11T09:42:10.667Z,9.95
2022-10-11T09:44:38.128Z,10.03
2022-10-11T09:47:05.949Z,10.33
2022-10-11T09:49:40.291Z,9.91
2022-10-11T09:52:15.098Z,10.48
2022-10-11T09:54:44.997Z,10.64
2022-10-11T09:57:39.826Z,10.70
2022-10-11T10:00:22.962Z,10.80
2022-10-11T10:02:52.327Z,10.78
2022-10-11T10:05:39.831Z,10.76
2022-10-11T10:08:09.212Z,10.81
2022-10-11T10:10:41.641Z,10.80
2022-10-11T10:13:43.383Z,11.10
2022-10-11T10:16:29.438Z,10.94
2022-10-11T10:19:05.045Z,10.60
2022-10-11T10:21:35.818Z,10.80
2022-10-11T10:24:08.015Z,11.25
2022-10-11T10:26:34.781Z,11.41
2022-10-11T10:29:16.141Z,11.54
2022-10-11T10:32:13.034Z,11.48
2022-10-11T10:34:38.358Z,11.75
2022-10-11T10:37:13.844Z,12.12
2022-10-11T10:39:49.617Z,11.71
2022-10-11T10:42:20.309Z,12.34
2022-10-11T10:44:55.053Z,12.27
2022-10-11T10:47:49.240Z,12.12
2022-10-11T10:50:39.905Z,11.83
2022-10-11T10:53:37.411Z,12.37
2022-10-11T10:56:14.594Z,12.58
2022-10-11T10:59:04.193Z,12.78
2022-10-11T11:01:46.294Z,13.28
2022-10-11T11:04:30.869Z,13.39
2022-10-11T11:07:08.146Z,13.67
2022-10-11T11:09:49.578Z,13.54
2022-10-11T11:12:34.765Z,13.83
2022-10-11T11:15:19.861Z,13.61
2022-10-11T11:18:01.790Z,13.71
2022-10-11T11:20:37.332Z,13.45
2022-10-11T11:23:12.387Z,13.70
2022-10-11T11:25:51.336Z,13.72
2022-10-11T11:29:02.427Z,14.09
2022-10-11T11:32:06.464Z,13.98
2022-10-11T11:34:39.895Z,14.03
2022-10-11T11:37:25.057Z,14.11
2022-10-11T11:39:57.454Z,13.93
2022-10-11T11:42:31.399Z,14.36
2022-10-11T11:45:05.555Z,14.29
2022-10-11T11:47:43.000Z,14.50
2022-10-11T11:50:24.496Z,14.55
2022-10-11T11:53:00.295Z,13.70
2022-10-11T11:55:42.256Z,13.94
2022-10-11T11:58:25.695Z,14.24
2022-10-11T12:00:57.782Z,14.23
2022-10-11T12:03:29.732Z,14.35
2022-10-11T12:06:17.167Z,14.47
2022-10-11T12:08:56.236Z,13.72
2022-10-11T12:11:29.495Z,14.19
2022-10-11T12:13:59.712Z,14.09
2022-10-11T12:16:27.040Z,14.38
2022-10-11T12:18:56.369Z,14.68
2022-10-11T12:21:27.388Z,13.82
2022-10-11T12:24:01.042Z,14.65
2022-10-11T12:26:27.317Z,14.65
2022-10-11T12:29:04.897Z,14.49
2022-10-11T12:31:35.277Z,14.32
2022-10-11T12:34:01.568Z,14.36
2022-10-11T12:36:28.563Z,14.36
2022-10-11T12:39:19.535Z,14.46
2022-10-11T12:41:49.116Z,14.71
2022-10-11T12:44:18.482Z,14.46
2022-10-11T12:46:50.768Z,14.88
2022-10-11T12:49:56.482Z,14.54
2022-10-11T12:52:28.431Z,14.18
2022-10-11T12:55:02.687Z,13.35
2022-10-11T12:57:50.233Z,14.64
2022-10-11T13:00:29.560Z,14.94
2022-10-11T13:02:57.736Z,15.34
2022-10-11T13:05:45.337Z,15.60
2022-10-11T13:08:25.169Z,15.28
2022-10-11T13:10:53.207Z,15.24
2022-10-11T13:13:33.172Z,15.03
2022-10-11T13:16:08.182Z,15.37
2022-10-11T13:18:35.426Z,15.47
2022-10-11T13:21:01.784Z,15.53
2022-10-11T13:23:34.971Z,15.53
2022-10-11T13:26:02.450Z,15.82
2022-10-11T13:28:34.124Z,15.40
2022-10-11T13:31:05.371Z,15.27
2022-10-11T13:33:37.048Z,15.45
2022-10-11T13:36:08.951Z,15.23
2022-10-11T13:38:36.763Z,15.01
2022-10-11T13:41:05.715Z,15.23
2022-10-11T13:43:32.468Z,15.05
2022-10-11T13:46:05.503Z,15.24
2022-10-11T13:48:39.553Z,15.51
2022-10-11T13:51:18.312Z,15.64
2022-10-11T13:54:04.936Z,15.49
2022-10-11T13:56:57.413Z,15.29
2022-10-11T13:59:25.600Z,15.21
2022-10-11T14:02:00.159Z,15.15
2022-10-11T14:04:29.759Z,14.32
2022-10-11T14:07:04.888Z,15.38
2022-10-11T14:09:36.484Z,14.92
2022-10-11T14:12:43.140Z,15.05
2022-10-11T14:15:36.865Z,15.07
2022-10-11T14:18:33.020Z,14.82
2022-10-11T14:21:17.635Z,14.82
2022-10-11T14:23:44.156Z,14.75
2022-10-11T14:26:17.746Z,14.84
2022-10-11T14:28:45.444Z,14.93
2022-10-11T14:31:14.285Z,14.56
2022-10-11T14:33:40.622Z,14.72
2022-10-11T14:36:09.881Z,14.69
2022-10-11T14:38:36.252Z,14.39
2022-10-11T14:41:02.601Z,14.57
2022-10-11T14:43:28.993Z,14.68
2022-10-11T14:45:55.276Z,14.27
2022-10-11T14:48:43.171Z,14.23
2022-10-11T14:51:12.781Z,14.54
2022-10-11T14:53:42.017Z,14.43
2022-10-11T14:56:08.763Z,14.67
2022-10-11T14:58:37.415Z,14.52
2022-10-11T15:01:03.784Z,14.29
2022-10-11T15:03:30.204Z,13.85
2022-10-11T15:05:56.747Z,14.31
2022-10-11T15:08:23.070Z,13.83
2022-10-11T15:10:49.388Z,14.29
2022-10-11T15:13:15.941Z,14.14
2022-10-11T15:15:42.670Z,14.04
2022-10-11T15:18:13.599Z,14.04
2022-10-11T15:20:43.082Z,13.98
2022-10-11T15:23:10.114Z,13.99
2022-10-11T15:25:38.416Z,13.86
2022-10-11T15:28:06.023Z,13.82
2022-10-11T15:30:40.121Z,13.80
2022-10-11T15:33:07.860Z,13.76
2022-10-11T15:35:34.186Z,13.66
2022-10-11T15:38:00.620Z,13.18
2022-10-11T15:40:30.019Z,13.48
2022-10-11T15:42:56.523Z,13.43
2022-10-11T15:45:23.500Z,13.14
2022-10-11T15:47:50.338Z,12.82
2022-10-11T15:50:37.294Z,13.05
2022-10-11T15:53:12.310Z,13.16
2022-10-11T15:55:41.770Z,13.11
2022-10-11T15:58:19.738Z,13.05
2022-10-11T16:00:47.993Z,12.58
2022-10-11T16:03:15.587Z,12.88
2022-10-11T16:05:43.005Z,12.78
2022-10-11T16:08:13.077Z,12.67
2022-10-11T16:10:39.862Z,12.11
2022-10-11T16:13:06.355Z,12.01
2022-10-11T16:15:34.246Z,12.07
2022-10-11T16:18:00.682Z,12.24
2022-10-11T16:20:27.104Z,12.14
2022-10-11T16:22:54.560Z,11.86
2022-10-11T16:25:21.849Z,11.46
2022-10-11T16:27:48.361Z,11.66
2022-10-11T16:30:16.126Z,11.35
2022-10-11T16:32:42.478Z,11.65
2022-10-11T16:35:10.869Z,11.56
2022-10-11T16:37:37.484Z,11.36
2022-10-11T16:40:05.898Z,10.91
2022-10-11T16:42:33.129Z,11.06
2022-10-11T16:44:59.757Z,10.94
2022-10-11T16:47:26.177Z,10.57
2022-10-11T16:49:52.705Z,10.71
2022-10-11T16:52:19.022Z,10.43
2022-10-11T16:54:46.620Z,10.50
2022-10-11T16:57:18.134Z,10.40
2022-10-11T16:59:44.635Z,9.76
2022-10-11T17:02:22.501Z,9.96
2022-10-11T17:04:53.867Z,9.66
2022-10-11T17:07:23.021Z,10.03
2022-10-11T17:09:49.733Z,9.86
2022-10-11T17:12:19.229Z,9.84
2022-10-11T17:14:45.624Z,9.59
2022-10-11T17:17:12.479Z,9.62
2022-10-11T17:19:45.282Z,9.56
2022-10-11T17:22:13.361Z,9.11
2022-10-11T17:24:40.187Z,9.44
2022-10-11T17:27:07.262Z,9.12
2022-10-11T17:29:35.633Z,9.02
2022-10-11T17:32:02.201Z,8.81
2022-10-11T17:34:29.072Z,8.91
2022-10-11T17:36:55.713Z,9.13
2022-10-11T17:39:23.497Z,8.59
2022-10-11T17:41:50.075Z,8.59
2022-10-11T17:44:18.346Z,8.90
2022-10-11T17:46:45.157Z,8.54
2022-10-11T17:49:12.184Z,8.83
2022-10-11T17:51:41.424Z,8.57
2022-10-11T17:54:12.241Z,8.39
2022-10-11T17:56:40.319Z,8.65
2022-10-11T17:59:07.663Z,8.47
2022-10-11T18:01:34.099Z,8.18
2022-10-11T18:04:03.128Z,8.30
2022-10-11T18:06:37.390Z,7.50
2022-10-11T18:09:04.162Z,8.25
2022-10-11T18:11:31.340Z,7.94
2022-10-11T18:13:57.709Z,8.31
2022-10-11T18:16:27.646Z,8.28
2022-10-11T18:18:56.533Z,8.24
2022-10-11T18:21:24.608Z,7.87
2022-10-11T18:23:51.210Z,8.04
2022-10-11T18:26:20.378Z,8.04
2022-10-11T18:28:48.329Z,7.93
2022-10-11T18:31:21.208Z,7.81
2022-10-11T18:33:48.456Z,7.80
2022-10-11T18:36:16.356Z,7.73
2022-10-11T18:38:46.636Z,7.39
2022-10-11T18:41:18.450Z,7.62
2022-10-11T18:43:50.144Z,7.57
2022-10-11T18:46:16.539Z,7.51
2022-10-11T18:48:44.291Z,7.20
2022-10-11T18:51:14.857Z,7.37
2022-10-11T18:53:42.348Z,6.87
2022-10-11T18:56:10.503Z,7.25
2022-10-11T18:58:39.041Z,7.35
2022-10-11T19:01:06.345Z,7.30
2022-10-11T19:03:35.271Z,7.03
2022-10-11T19:06:04.973Z,6.90
2022-10-11T19:08:31.855Z,7.22
2022-10-11T19:11:05.698Z,7.07
2022-10-11T19:13:32.591Z,6.59
2022-10-11T19:16:13.952Z,7.05
2022-10-11T19:18:44.057Z,7.09
2022-10-11T19:21:12.830Z,6.60
2022-10-11T19:23:41.783Z,6.93
2022-10-11T19:26:22.234Z,6.79
2022-10-11T19:28:53.661Z,6.93
2022-10-11T19:31:20.563Z,6.37
2022-10-11T19:33:49.369Z,6.68
2022-10-11T19:36:18.576Z,6.82
2022-10-11T19:38:48.147Z,5.61
2022-10-11T19:41:16.556Z,6.74
2022-10-11T19:43:43.643Z,6.65
2022-10-11T19:46:20.210Z,6.12
2022-10-11T19:48:50.892Z,6.60
2022-10-11T19:51:25.248Z,6.62
2022-10-11T19:54:12.941Z,5.99
2022-10-11T19:56:39.493Z,6.56
2022-10-11T19:59:08.428Z,6.54
2022-10-11T20:01:36.347Z,6.50
2022-10-11T20:04:08.278Z,6.34
2022-10-11T20:06:38.503Z,6.35
2022-10-11T20:09:29.427Z,6.22
2022-10-11T20:11:55.445Z,6.09
2022-10-11T20:14:21.777Z,6.11
2022-10-11T20:16:49.995Z,6.25
2022-10-11T20:19:16.420Z,6.07
2022-10-11T20:21:42.779Z,6.21
2022-10-11T20:24:09.081Z,6.19
2022-10-11T20:26:35.433Z,5.37
2022-10-11T20:29:01.724Z,5.99
2022-10-11T20:31:33.330Z,5.67
2022-10-11T20:34:02.090Z,5.93
2022-10-11T20:36:30.022Z,6.04
2022-10-11T20:38:57.945Z,6.02
2022-10-11T20:41:27.134Z,5.98
2022-10-11T20:43:55.673Z,5.66
2022-10-11T20:46:24.730Z,5.78
2022-10-11T20:48:58.880Z,4.90
2022-10-11T20:51:28.766Z,5.25
2022-10-11T20:53:56.291Z,5.75
2022-10-11T20:56:23.209Z,4.92
2022-10-11T20:58:54.223Z,5.64
2022-10-11T21:01:23.378Z,5.35
2022-10-11T21:03:50.339Z,5.64
2022-10-11T21:06:16.757Z,5.07
2022-10-11T21:08:43.137Z,5.65
2022-10-11T21:11:10.200Z,5.50
2022-10-11T21:13:37.178Z,5.56
2022-10-11T21:16:10.760Z,5.11
2022-10-11T21:18:37.473Z,4.75
2022-10-11T21:21:12.424Z,5.45
2022-10-11T21:23:39.505Z,5.43
2022-10-11T21:26:09.021Z,5.19
2022-10-11T21:28:35.880Z,5.39
2022-10-11T21:31:04.492Z,5.15
2022-10-11T21:33:31.206Z,5.08
2022-10-11T21:36:05.400Z,5.29
2022-10-11T21:38:32.660Z,5.23
2022-10-11T21:41:01.625Z,5.25
2022-10-11T21:43:28.019Z,5.24
2022-10-11T21:45:54.329Z,5.06
2022-10-11T21:48:20.655Z,5.15
2022-10-11T21:50:54.727Z,5.13
2022-10-11T21:53:21.369Z,5.09
2022-10-11T21:55:47.692Z,4.47
2022-10-11T21:58:14.083Z,4.92
2022-10-11T22:00:40.394Z,4.65
2022-10-11T22:03:06.713Z,5.00
2022-10-11T22:05:33.117Z,4.53
2022-10-11T22:07:59.565Z,5.00
2022-10-11T22:10:25.883Z,4.55
2022-10-11T22:12:52.259Z,4.97
2022-10-11T22:15:18.591Z,4.94
2022-10-11T22:17:44.868Z,4.48
2022-10-11T22:20:11.232Z,4.46
2022-10-11T22:22:37.880Z,4.12
2022-10-11T22:25:05.070Z,4.38
2022-10-11T22:27:31.482Z,4.56
2022-10-11T22:29:57.800Z,4.72
2022-10-11T22:32:24.118Z,4.57
2022-10-11T22:34:50.412Z,4.28
2022-10-11T22:37:16.734Z,3.66
2022-10-11T22:39:43.080Z,4.17
2022-10-11T22:42:10.925Z,4.21
2022-10-11T22:44:37.229Z,4.47
2022-10-11T22:47:03.559Z,4.56
2022-10-11T22:49:29.873Z,4.38
2022-10-11T22:51:56.180Z,4.23
2022-10-11T22:54:22.473Z,4.08
2022-10-11T22:56:48.858Z,3.61
2022-10-11T22:59:15.332Z,4.43
2022-10-11T23:01:41.681Z,4.10
2022-10-11T23:04:08.153Z,4.40
2022-10-11T23:06:34.545Z,4.03
2022-10-11T23:09:00.961Z,4.19
2022-10-11T23:11:27.701Z,3.91
2022-10-11T23:13:53.993Z,4.14
2022-10-11T23:16:20.476Z,4.08
2022-10-11T23:18:46.804Z,4.34
2022-10-11T23:21:13.213Z,4.32
2022-10-11T23:23:39.792Z,4.33
2022-10-11T23:26:12.561Z,4.24
2022-10-11T23:28:39.369Z,3.94
2022-10-11T23:31:08.714Z,4.25
2022-10-11T23:33:35.387Z,4.24
2022-10-11T23:36:01.928Z,4.03
2022-10-11T23:38:31.107Z,4.19
2022-10-11T23:40:57.487Z,3.82
2022-10-11T23:43:24.041Z,3.45
2022-10-11T23:45:51.093Z,3.34
2022-10-11T23:48:17.401Z,3.19
2022-10-11T23:50:43.816Z,4.04
2022-10-11T23:53:10.614Z,3.96
2022-10-11T23:55:37.025Z,3.91
2022-10-11T23:58:03.336Z,3.96
